createdAt,value
2022-11-09T00:01:46.735Z,14.88
2022-11-09T00:04:16.485Z,15.08
2022-11-09T00:06:46.293Z,15.19
2022-11-09T00:09:18.817Z,15.07
2022-11-09T00:11:48.640Z,15.00
2022-11-09T00:14:19.327Z,14.93
2022-11-09T00:16:49.163Z,14.78
2022-11-09T00:19:18.944Z,14.83
2022-11-09T00:21:48.752Z,14.62
2022-11-09T00:24:21.273Z,14.88
2022-11-09T00:26:51.114Z,14.82
2022-11-09T00:29:20.950Z,14.68
2022-11-09T00:31:51.825Z,14.85
2022-11-09T00:34:21.672Z,14.90
2022-11-09T00:36:51.513Z,14.88
2022-11-09T00:39:24.188Z,14.96
2022-11-09T00:41:53.967Z,14.99
2022-11-09T00:44:24.466Z,15.02
2022-11-09T00:46:54.408Z,14.75
2022-11-09T00:49:24.261Z,15.00
2022-11-09T00:51:54.659Z,14.93
2022-11-09T00:54:27.037Z,14.88
2022-11-09T00:56:56.878Z,15.19
2022-11-09T00:59:26.750Z,15.18
2022-11-09T01:01:56.546Z,15.13
2022-11-09T01:04:26.379Z,15.02
2022-11-09T01:06:56.235Z,14.75
2022-11-09T01:09:28.708Z,15.00
2022-11-09T01:11:58.777Z,14.98
2022-11-09T01:14:28.592Z,15.06
2022-11-09T01:16:58.450Z,15.07
2022-11-09T01:19:29.567Z,15.10
2022-11-09T01:21:59.385Z,15.15
2022-11-09T01:24:33.835Z,15.03
2022-11-09T01:27:03.665Z,15.29
2022-11-09T01:29:33.463Z,15.01
2022-11-09T01:32:03.223Z,15.20
2022-11-09T01:34:34.995Z,15.32
2022-11-09T01:37:05.455Z,15.37
2022-11-09T01:39:37.827Z,15.49
2022-11-09T01:42:07.711Z,15.42
2022-11-09T01:44:38.184Z,15.25
2022-11-09T01:47:15.380Z,15.58
2022-11-09T01:49:47.880Z,15.59
2022-11-09T01:52:22.938Z,15.54
2022-11-09T01:55:01.970Z,15.70
2022-11-09T01:57:36.001Z,15.62
2022-11-09T02:00:10.124Z,15.66
2022-11-09T02:02:49.896Z,15.67
2022-11-09T02:05:24.487Z,15.73
2022-11-09T02:07:57.191Z,15.73
2022-11-09T02:10:34.387Z,15.76
2022-11-09T02:13:05.499Z,15.74
2022-11-09T02:15:45.387Z,15.74
2022-11-09T02:18:15.993Z,15.77
2022-11-09T02:20:53.149Z,15.67
2022-11-09T02:23:27.239Z,15.78
2022-11-09T02:26:00.586Z,15.72
2022-11-09T02:28:31.335Z,15.71
2022-11-09T02:31:02.208Z,15.56
2022-11-09T02:33:32.063Z,15.74
2022-11-09T02:36:04.495Z,15.81
2022-11-09T02:38:34.308Z,15.86
2022-11-09T02:41:04.547Z,15.75
2022-11-09T02:43:34.598Z,15.82
2022-11-09T02:46:04.451Z,15.85
2022-11-09T02:48:34.262Z,15.63
2022-11-09T02:51:06.786Z,15.92
2022-11-09T02:53:36.562Z,15.75
2022-11-09T02:56:06.695Z,15.75
2022-11-09T02:58:36.542Z,15.82
2022-11-09T03:01:06.592Z,15.73
2022-11-09T03:03:37.762Z,15.71
2022-11-09T03:06:10.318Z,15.53
2022-11-09T03:08:40.577Z,15.49
2022-11-09T03:11:10.482Z,15.60
2022-11-09T03:13:40.355Z,15.45
2022-11-09T03:16:12.235Z,15.43
2022-11-09T03:18:42.960Z,15.45
2022-11-09T03:21:16.095Z,15.42
2022-11-09T03:23:47.754Z,15.50
2022-11-09T03:26:17.619Z,15.38
2022-11-09T03:28:47.473Z,15.35
2022-11-09T03:31:17.928Z,15.40
2022-11-09T03:33:49.772Z,15.38
2022-11-09T03:36:22.153Z,15.41
2022-11-09T03:38:52.950Z,15.36
2022-11-09T03:41:22.777Z,14.96
2022-11-09T03:43:52.638Z,15.16
2022-11-09T03:46:22.443Z,15.31
2022-11-09T03:48:52.210Z,15.32
2022-11-09T03:51:24.685Z,15.42
2022-11-09T03:53:54.555Z,15.27
2022-11-09T03:56:24.369Z,15.17
2022-11-09T03:58:54.191Z,15.25
2022-11-09T04:01:24.019Z,15.36
2022-11-09T04:03:53.871Z,15.32
2022-11-09T04:06:26.308Z,15.32
2022-11-09T04:08:56.098Z,15.26
2022-11-09T04:11:25.883Z,15.33
2022-11-09T04:13:55.629Z,15.10
2022-11-09T04:16:25.453Z,15.16
2022-11-09T04:18:55.274Z,15.17
2022-11-09T04:21:27.719Z,15.11
2022-11-09T04:23:57.554Z,15.05
2022-11-09T04:26:27.416Z,14.96
2022-11-09T04:28:57.269Z,14.89
2022-11-09T04:31:28.311Z,14.88
2022-11-09T04:33:58.339Z,14.92
2022-11-09T04:36:30.755Z,15.01
2022-11-09T04:39:00.557Z,14.85
2022-11-09T04:41:30.666Z,14.95
2022-11-09T04:44:00.488Z,14.91
2022-11-09T04:46:30.537Z,15.05
2022-11-09T04:49:00.307Z,15.11
2022-11-09T04:51:32.722Z,15.13
2022-11-09T04:54:02.486Z,15.09
2022-11-09T04:56:32.267Z,15.11
2022-11-09T04:59:02.080Z,15.25
2022-11-09T05:01:31.865Z,14.80
2022-11-09T05:04:01.707Z,15.13
2022-11-09T05:06:36.737Z,15.13
2022-11-09T05:09:08.459Z,15.28
2022-11-09T05:11:39.062Z,15.13
2022-11-09T05:14:08.870Z,15.10
2022-11-09T05:16:38.662Z,15.05
2022-11-09T05:19:08.470Z,15.18
2022-11-09T05:21:40.870Z,15.16
2022-11-09T05:24:08.753Z,15.10
2022-11-09T05:26:40.508Z,15.04
2022-11-09T05:29:11.707Z,15.04
2022-11-09T05:31:44.522Z,15.08
2022-11-09T05:34:17.618Z,15.14
2022-11-09T05:36:50.003Z,15.21
2022-11-09T05:39:19.765Z,15.23
2022-11-09T05:41:49.562Z,15.16
2022-11-09T05:44:19.326Z,15.19
2022-11-09T05:46:49.088Z,15.12
2022-11-09T05:49:18.867Z,14.91
2022-11-09T05:51:51.339Z,15.01
2022-11-09T05:54:21.149Z,15.10
2022-11-09T05:56:50.924Z,15.25
2022-11-09T05:59:20.810Z,15.17
2022-11-09T06:01:50.695Z,15.36
2022-11-09T06:04:20.516Z,15.28
2022-11-09T06:06:53.189Z,15.35
2022-11-09T06:09:24.131Z,15.41
2022-11-09T06:11:55.995Z,15.48
2022-11-09T06:14:26.843Z,15.35
2022-11-09T06:16:57.731Z,15.42
2022-11-09T06:19:28.680Z,15.43
2022-11-09T06:22:02.173Z,15.29
2022-11-09T06:24:33.508Z,15.45
2022-11-09T06:27:04.393Z,15.29
2022-11-09T06:29:35.244Z,15.46
2022-11-09T06:32:06.207Z,15.49
2022-11-09T06:34:37.035Z,15.33
2022-11-09T06:37:10.427Z,15.55
2022-11-09T06:39:41.265Z,15.58
2022-11-09T06:42:12.101Z,15.55
2022-11-09T06:44:42.893Z,15.55
2022-11-09T06:47:13.719Z,15.52
2022-11-09T06:49:44.630Z,15.59
2022-11-09T06:52:18.160Z,15.12
2022-11-09T06:54:47.923Z,15.52
2022-11-09T06:57:18.795Z,15.36
2022-11-09T06:59:49.690Z,15.38
2022-11-09T07:02:22.424Z,15.24
2022-11-09T07:04:55.276Z,15.39
2022-11-09T07:07:29.947Z,15.49
2022-11-09T07:10:00.799Z,15.33
2022-11-09T07:12:32.722Z,15.40
2022-11-09T07:15:02.654Z,15.45
2022-11-09T07:17:37.132Z,15.35
2022-11-09T07:20:08.021Z,15.31
2022-11-09T07:22:41.879Z,15.46
2022-11-09T07:25:13.686Z,15.51
2022-11-09T07:27:50.365Z,15.25
2022-11-09T07:30:21.870Z,15.13
2022-11-09T07:33:10.063Z,15.59
2022-11-09T07:35:40.430Z,15.68
2022-11-09T07:38:13.267Z,15.62
2022-11-09T07:40:44.035Z,15.65
2022-11-09T07:43:15.973Z,15.40
2022-11-09T07:45:49.947Z,15.48
2022-11-09T07:48:20.945Z,15.51
2022-11-09T07:50:52.075Z,15.63
2022-11-09T07:53:25.725Z,15.62
2022-11-09T07:56:00.720Z,15.59
2022-11-09T07:58:32.234Z,15.56
2022-11-09T08:01:03.153Z,15.33
2022-11-09T08:03:34.027Z,15.49
2022-11-09T08:06:03.933Z,15.61
2022-11-09T08:08:37.446Z,15.75
2022-11-09T08:11:09.389Z,15.70
2022-11-09T08:13:41.314Z,15.60
2022-11-09T08:16:11.459Z,15.88
2022-11-09T08:18:46.901Z,15.63
2022-11-09T08:21:18.299Z,15.83
2022-11-09T08:23:51.734Z,15.92
2022-11-09T08:26:22.629Z,16.03
2022-11-09T08:28:55.893Z,15.73
2022-11-09T08:31:26.777Z,15.83
2022-11-09T08:33:57.674Z,16.05
2022-11-09T08:36:29.922Z,16.10
2022-11-09T08:39:03.676Z,15.80
2022-11-09T08:41:34.592Z,16.03
2022-11-09T08:44:05.658Z,16.06
2022-11-09T08:46:41.044Z,16.08
2022-11-09T08:49:13.254Z,15.93
2022-11-09T08:51:44.111Z,16.03
2022-11-09T08:54:18.186Z,15.87
2022-11-09T08:56:48.025Z,15.86
2022-11-09T08:59:18.925Z,15.84
2022-11-09T09:01:49.990Z,15.83
2022-11-09T09:04:20.952Z,15.60
2022-11-09T09:06:52.901Z,15.83
2022-11-09T09:09:26.828Z,15.74
2022-11-09T09:11:57.731Z,15.99
2022-11-09T09:14:29.074Z,16.06
2022-11-09T09:17:00.017Z,16.12
2022-11-09T09:19:30.902Z,15.52
2022-11-09T09:22:02.013Z,16.01
2022-11-09T09:24:35.630Z,16.00
2022-11-09T09:27:06.744Z,15.95
2022-11-09T09:29:37.655Z,16.03
2022-11-09T09:32:08.632Z,16.01
2022-11-09T09:34:39.522Z,16.04
2022-11-09T09:37:15.427Z,15.95
2022-11-09T09:39:53.669Z,16.17
2022-11-09T09:42:32.831Z,15.90
2022-11-09T09:45:07.114Z,16.16
2022-11-09T09:47:49.486Z,15.93
2022-11-09T09:50:24.263Z,16.26
2022-11-09T09:53:23.303Z,16.36
2022-11-09T09:55:59.318Z,16.52
2022-11-09T09:58:33.026Z,16.46
2022-11-09T10:01:10.009Z,16.55
2022-11-09T10:03:41.867Z,16.23
2022-11-09T10:06:29.477Z,16.23
2022-11-09T10:09:15.973Z,15.96
2022-11-09T10:12:01.342Z,16.23
2022-11-09T10:14:48.292Z,15.93
2022-11-09T10:17:28.544Z,16.07
2022-11-09T10:20:13.239Z,16.18
2022-11-09T10:22:55.132Z,16.25
2022-11-09T10:25:50.324Z,16.31
2022-11-09T10:28:21.031Z,16.29
2022-11-09T10:30:53.376Z,16.10
2022-11-09T10:33:25.424Z,16.33
2022-11-09T10:36:08.176Z,16.42
2022-11-09T10:38:46.425Z,16.42
2022-11-09T10:41:42.220Z,16.41
2022-11-09T10:44:34.492Z,16.53
2022-11-09T10:47:26.364Z,16.43
2022-11-09T10:50:27.150Z,16.45
2022-11-09T10:53:19.289Z,16.23
2022-11-09T10:56:20.831Z,16.37
2022-11-09T10:59:46.623Z,16.53
2022-11-09T11:02:50.180Z,16.58
2022-11-09T11:05:39.878Z,16.44
2022-11-09T11:08:40.991Z,16.26
2022-11-09T11:11:34.254Z,16.27
2022-11-09T11:14:32.355Z,16.04
2022-11-09T11:17:26.176Z,16.27
2022-11-09T11:20:33.192Z,16.23
2022-11-09T11:23:25.329Z,16.45
2022-11-09T11:26:40.677Z,16.45
2022-11-09T11:29:40.220Z,16.32
2022-11-09T11:32:29.996Z,16.34
2022-11-09T11:35:21.442Z,16.12
2022-11-09T11:38:29.272Z,15.86
2022-11-09T11:41:42.671Z,16.25
2022-11-09T11:44:59.410Z,16.29
2022-11-09T11:48:14.315Z,16.29
2022-11-09T11:51:09.440Z,16.51
2022-11-09T11:54:14.087Z,16.74
2022-11-09T11:57:11.688Z,16.57
2022-11-09T12:00:14.064Z,16.80
2022-11-09T12:03:36.850Z,16.73
2022-11-09T12:06:37.162Z,16.76
2022-11-09T12:09:57.118Z,16.85
2022-11-09T12:12:56.758Z,16.73
2022-11-09T12:15:58.397Z,16.53
2022-11-09T12:19:00.438Z,16.71
2022-11-09T12:21:56.983Z,16.67
2022-11-09T12:24:57.930Z,16.82
2022-11-09T12:28:03.622Z,16.89
2022-11-09T12:31:06.877Z,16.64
2022-11-09T12:34:00.522Z,16.96
2022-11-09T12:36:54.724Z,17.12
2022-11-09T12:39:50.220Z,17.26
2022-11-09T12:42:46.261Z,17.06
2022-11-09T12:45:36.876Z,17.43
2022-11-09T12:48:29.320Z,17.31
2022-11-09T12:51:18.478Z,17.19
2022-11-09T12:54:12.675Z,17.28
2022-11-09T12:57:07.738Z,17.12
2022-11-09T12:59:57.533Z,17.16
2022-11-09T13:02:56.377Z,16.98
2022-11-09T13:05:45.861Z,16.99
2022-11-09T13:08:34.931Z,16.91
2022-11-09T13:11:28.298Z,16.84
2022-11-09T13:14:41.209Z,17.00
2022-11-09T13:18:05.247Z,17.00
2022-11-09T13:20:57.101Z,16.91
2022-11-09T13:24:00.957Z,16.89
2022-11-09T13:27:01.901Z,16.45
2022-11-09T13:29:56.927Z,16.42
2022-11-09T13:33:20.452Z,16.65
2022-11-09T13:36:24.202Z,16.67
2022-11-09T13:39:34.420Z,16.70
2022-11-09T13:42:33.838Z,16.46
2022-11-09T13:45:37.900Z,16.61
2022-11-09T13:48:37.427Z,16.64
2022-11-09T13:51:27.965Z,16.21
2022-11-09T13:54:31.901Z,16.43
2022-11-09T13:57:20.194Z,16.34
2022-11-09T14:00:18.998Z,16.30
2022-11-09T14:03:25.327Z,16.47
2022-11-09T14:06:15.410Z,16.31
2022-11-09T14:09:04.406Z,15.96
2022-11-09T14:12:13.590Z,16.28
2022-11-09T14:15:19.889Z,16.34
2022-11-09T14:18:21.155Z,16.29
2022-11-09T14:21:28.059Z,16.25
2022-11-09T14:24:22.193Z,16.37
2022-11-09T14:27:19.667Z,16.15
2022-11-09T14:30:20.478Z,16.09
2022-11-09T14:33:25.791Z,16.23
2022-11-09T14:36:15.954Z,16.18
2022-11-09T14:39:07.070Z,16.15
2022-11-09T14:41:56.134Z,16.14
2022-11-09T14:44:46.966Z,16.17
2022-11-09T14:47:39.601Z,16.08
2022-11-09T14:50:33.730Z,16.00
2022-11-09T14:53:25.735Z,15.66
2022-11-09T14:56:18.069Z,15.85
2022-11-09T14:59:09.530Z,15.62
2022-11-09T15:02:07.340Z,15.90
2022-11-09T15:04:57.717Z,15.58
2022-11-09T15:07:50.812Z,15.80
2022-11-09T15:10:40.575Z,15.69
2022-11-09T15:13:36.954Z,15.62
2022-11-09T15:16:27.260Z,15.41
2022-11-09T15:19:26.496Z,15.72
2022-11-09T15:22:47.278Z,15.61
2022-11-09T15:25:54.877Z,15.21
2022-11-09T15:28:50.214Z,15.33
2022-11-09T15:31:39.973Z,15.45
2022-11-09T15:34:30.638Z,15.37
2022-11-09T15:37:24.783Z,15.38
2022-11-09T15:40:15.964Z,15.23
2022-11-09T15:43:07.857Z,15.28
2022-11-09T15:45:57.746Z,15.28
2022-11-09T15:48:47.559Z,14.90
2022-11-09T15:51:36.255Z,15.27
2022-11-09T15:54:25.968Z,15.07
2022-11-09T15:57:19.556Z,14.84
2022-11-09T16:00:19.541Z,14.85
2022-11-09T16:03:11.333Z,15.14
2022-11-09T16:05:59.583Z,15.03
2022-11-09T16:08:50.478Z,15.14
2022-11-09T16:11:38.985Z,15.38
2022-11-09T16:14:27.819Z,15.45
2022-11-09T16:17:19.199Z,15.57
2022-11-09T16:20:09.660Z,15.54
2022-11-09T16:22:58.418Z,15.61
2022-11-09T16:25:46.747Z,15.55
2022-11-09T16:28:36.359Z,15.41
2022-11-09T16:31:48.073Z,15.14
2022-11-09T16:34:36.388Z,14.91
2022-11-09T16:37:27.135Z,15.33
2022-11-09T16:40:19.319Z,14.98
2022-11-09T16:43:07.978Z,14.98
2022-11-09T16:45:56.874Z,15.07
2022-11-09T16:48:45.682Z,15.49
2022-11-09T16:51:38.080Z,15.56
2022-11-09T16:54:28.261Z,15.16
2022-11-09T16:57:16.984Z,15.18
2022-11-09T17:00:06.592Z,15.48
2022-11-09T17:02:57.224Z,15.40
2022-11-09T17:05:46.825Z,15.25
2022-11-09T17:08:39.385Z,15.16
2022-11-09T17:11:28.388Z,15.14
2022-11-09T17:14:17.240Z,14.67
2022-11-09T17:17:06.782Z,14.54
2022-11-09T17:19:55.452Z,14.62
2022-11-09T17:22:46.238Z,14.40
2022-11-09T17:25:38.933Z,15.17
2022-11-09T17:28:29.643Z,14.45
2022-11-09T17:31:21.752Z,14.50
2022-11-09T17:34:12.307Z,14.78
2022-11-09T17:37:04.656Z,14.89
2022-11-09T17:39:55.447Z,15.01
2022-11-09T17:42:47.790Z,14.71
2022-11-09T17:45:38.160Z,14.68
2022-11-09T17:48:26.930Z,14.81
2022-11-09T17:51:16.750Z,14.86
2022-11-09T17:54:06.635Z,14.96
2022-11-09T17:56:55.047Z,14.89
2022-11-09T17:59:47.237Z,14.88
2022-11-09T18:02:37.296Z,14.68
2022-11-09T18:05:25.699Z,14.77
2022-11-09T18:08:16.456Z,14.53
2022-11-09T18:11:05.924Z,14.38
2022-11-09T18:13:55.693Z,14.76
2022-11-09T18:16:47.336Z,14.62
2022-11-09T18:19:35.880Z,14.20
2022-11-09T18:22:24.338Z,14.25
2022-11-09T18:25:13.487Z,14.38
2022-11-09T18:28:03.713Z,14.29
2022-11-09T18:30:52.330Z,14.12
2022-11-09T18:33:45.517Z,14.01
2022-11-09T18:36:33.921Z,14.01
2022-11-09T18:39:22.454Z,13.87
2022-11-09T18:42:10.779Z,13.86
2022-11-09T18:44:59.389Z,13.95
2022-11-09T18:47:51.293Z,13.90
2022-11-09T18:50:43.310Z,13.88
2022-11-09T18:53:36.269Z,13.93
2022-11-09T18:56:27.554Z,13.87
2022-11-09T18:59:17.547Z,13.85
2022-11-09T19:02:07.426Z,13.51
2022-11-09T19:04:57.075Z,13.87
2022-11-09T19:07:48.050Z,13.88
2022-11-09T19:10:38.796Z,13.92
2022-11-09T19:13:28.382Z,13.78
2022-11-09T19:16:18.735Z,13.99
2022-11-09T19:19:08.319Z,13.98
2022-11-09T19:21:58.652Z,14.12
2022-11-09T19:24:52.166Z,13.83
2022-11-09T19:27:41.493Z,13.98
2022-11-09T19:30:30.870Z,13.67
2022-11-09T19:33:19.706Z,13.49
2022-11-09T19:36:29.228Z,13.57
2022-11-09T19:39:18.956Z,14.03
2022-11-09T19:42:11.031Z,14.08
2022-11-09T19:44:59.667Z,14.17
2022-11-09T19:47:51.613Z,14.18
2022-11-09T19:50:41.181Z,14.00
2022-11-09T19:53:32.301Z,14.23
2022-11-09T19:56:22.312Z,14.28
2022-11-09T19:59:18.216Z,14.34
2022-11-09T20:02:07.223Z,14.30
2022-11-09T20:04:55.879Z,14.18
2022-11-09T20:07:45.643Z,14.15
2022-11-09T20:10:39.199Z,14.32
2022-11-09T20:13:31.221Z,14.21
2022-11-09T20:16:23.304Z,14.06
2022-11-09T20:19:14.845Z,14.24
2022-11-09T20:22:08.495Z,14.12
2022-11-09T20:24:57.542Z,14.33
2022-11-09T20:27:47.204Z,13.99
2022-11-09T20:30:42.154Z,14.42
2022-11-09T20:33:35.553Z,14.29
2022-11-09T20:36:25.687Z,14.40
2022-11-09T20:39:14.717Z,14.30
2022-11-09T20:42:04.705Z,14.31
2022-11-09T20:44:54.750Z,14.27
2022-11-09T20:48:05.065Z,14.42
2022-11-09T20:50:57.163Z,14.34
2022-11-09T20:53:47.416Z,14.34
2022-11-09T20:56:40.499Z,14.38
2022-11-09T20:59:30.125Z,14.23
2022-11-09T21:02:20.176Z,14.28
2022-11-09T21:05:10.663Z,14.03
2022-11-09T21:08:02.036Z,14.13
2022-11-09T21:10:51.611Z,14.03
2022-11-09T21:13:44.168Z,14.12
2022-11-09T21:16:33.797Z,13.95
2022-11-09T21:19:24.634Z,14.05
2022-11-09T21:22:14.998Z,13.97
2022-11-09T21:25:18.608Z,13.81
2022-11-09T21:28:35.271Z,13.94
2022-11-09T21:31:24.719Z,13.75
2022-11-09T21:34:13.371Z,13.95
2022-11-09T21:37:02.795Z,13.94
2022-11-09T21:39:52.225Z,13.99
2022-11-09T21:42:43.894Z,13.93
2022-11-09T21:45:33.153Z,14.09
2022-11-09T21:48:23.049Z,14.07
2022-11-09T21:51:11.820Z,13.70
2022-11-09T21:54:01.596Z,13.89
2022-11-09T21:56:53.460Z,13.98
2022-11-09T21:59:45.511Z,13.69
2022-11-09T22:02:34.150Z,13.80
2022-11-09T22:05:23.380Z,13.82
2022-11-09T22:08:12.787Z,13.79
2022-11-09T22:11:12.657Z,13.61
2022-11-09T22:14:14.780Z,13.61
2022-11-09T22:17:08.905Z,13.95
2022-11-09T22:20:10.076Z,13.86
2022-11-09T22:22:58.832Z,13.78
2022-11-09T22:25:48.258Z,13.87
2022-11-09T22:28:36.741Z,14.12
2022-11-09T22:31:26.209Z,13.77
2022-11-09T22:34:18.458Z,14.05
2022-11-09T22:37:07.826Z,13.80
2022-11-09T22:39:57.263Z,13.77
2022-11-09T22:42:46.683Z,13.71
2022-11-09T22:45:36.916Z,13.88
2022-11-09T22:48:27.426Z,13.73
2022-11-09T22:51:21.020Z,13.53
2022-11-09T22:54:10.797Z,13.65
2022-11-09T22:56:59.235Z,13.67
2022-11-09T22:59:52.550Z,13.82
2022-11-09T23:02:41.159Z,13.54
2022-11-09T23:05:29.582Z,13.65
2022-11-09T23:08:21.383Z,13.64
2022-11-09T23:11:13.812Z,13.47
2022-11-09T23:14:03.458Z,13.75
2022-11-09T23:16:52.710Z,13.44
2022-11-09T23:19:39.372Z,13.65
2022-11-09T23:22:28.794Z,13.72
2022-11-09T23:25:33.259Z,13.53
2022-11-09T23:28:21.890Z,13.60
2022-11-09T23:31:12.373Z,13.53
2022-11-09T23:34:03.596Z,13.57
2022-11-09T23:36:54.234Z,13.07
2022-11-09T23:39:42.406Z,13.44
2022-11-09T23:42:33.365Z,13.48
2022-11-09T23:45:21.478Z,13.51
2022-11-09T23:48:15.233Z,13.44
2022-11-09T23:51:04.722Z,13.27
2022-11-09T23:53:53.081Z,13.52
2022-11-09T23:56:41.361Z,13.37
2022-11-09T23:59:32.371Z,13.03
